createdAt,value
2023-03-08T00:04:56.604Z,99011.41
2023-03-08T00:09:58.182Z,99011.44
2023-03-08T00:14:59.596Z,99021.63
2023-03-08T00:20:01.303Z,99007.13
2023-03-08T00:25:03.014Z,99022.22
2023-03-08T00:30:07.376Z,99003.13
2023-03-08T00:35:17.399Z,98989.31
2023-03-08T00:40:22.770Z,98977.97
2023-03-08T00:45:28.655Z,98988.50
2023-03-08T00:50:30.115Z,98993.75
2023-03-08T00:55:31.707Z,98986.69
2023-03-08T01:00:33.206Z,98977.38
2023-03-08T01:05:38.960Z,98971.28
2023-03-08T01:10:40.571Z,98969.06
2023-03-08T01:15:42.055Z,98965.38
2023-03-08T01:20:43.742Z,98949.44
2023-03-08T01:25:45.252Z,98949.09
2023-03-08T01:30:46.747Z,98932.22
2023-03-08T01:35:48.281Z,98944.69
2023-03-08T01:40:49.909Z,98943.03
2023-03-08T01:46:10.054Z,98930.97
2023-03-08T01:51:12.899Z,98921.69
2023-03-08T01:56:15.866Z,98910.97
2023-03-08T02:01:18.773Z,98899.50
2023-03-08T02:06:20.770Z,98885.38
2023-03-08T02:11:23.124Z,98879.19
2023-03-08T02:16:24.693Z,98874.25
2023-03-08T02:21:27.541Z,98863.53
2023-03-08T02:26:29.060Z,98861.59
2023-03-08T02:31:30.633Z,98859.03
2023-03-08T02:36:32.258Z,98849.53
2023-03-08T02:41:33.896Z,98847.13
2023-03-08T02:46:35.534Z,98843.78
2023-03-08T02:51:38.160Z,98843.31
2023-03-08T02:56:39.631Z,98834.53
2023-03-08T03:01:42.355Z,98818.22
2023-03-08T03:06:43.795Z,98809.38
2023-03-08T03:11:45.219Z,98810.88
2023-03-08T03:16:46.660Z,98808.38
2023-03-08T03:21:48.052Z,98802.72
2023-03-08T03:26:52.583Z,98794.56
2023-03-08T03:31:54.118Z,98790.91
2023-03-08T03:36:55.984Z,98789.22
2023-03-08T03:41:57.328Z,98775.72
2023-03-08T03:46:58.819Z,98773.41
2023-03-08T03:52:00.400Z,98769.31
2023-03-08T03:57:01.792Z,98770.13
2023-03-08T04:02:03.203Z,98767.50
2023-03-08T04:07:04.786Z,98756.94
2023-03-08T04:12:06.368Z,98750.13
2023-03-08T04:17:07.875Z,98743.94
2023-03-08T04:22:09.270Z,98739.38
2023-03-08T04:27:10.751Z,98740.19
2023-03-08T04:32:12.213Z,98728.94
2023-03-08T04:37:13.882Z,98732.59
2023-03-08T04:42:15.335Z,98722.84
2023-03-08T04:47:16.831Z,98725.47
2023-03-08T04:52:24.973Z,98715.09
2023-03-08T05:03:26.423Z,98703.25
2023-03-08T05:08:37.352Z,98687.28
2023-03-08T05:13:48.673Z,98674.97
2023-03-08T05:19:11.654Z,98672.88
2023-03-08T05:24:32.087Z,98667.66
2023-03-08T05:29:53.917Z,98647.34
2023-03-08T05:35:11.056Z,98636.19
2023-03-08T05:46:31.161Z,98618.75
2023-03-08T05:51:41.786Z,98608.69
2023-03-08T05:56:49.024Z,98591.97
2023-03-08T06:08:21.326Z,98599.75
2023-03-08T06:36:34.999Z,98557.28
2023-03-08T06:47:53.904Z,98556.75
2023-03-08T06:53:17.937Z,98545.28
2023-03-08T06:59:02.708Z,98529.72
2023-03-08T07:04:18.586Z,98504.50
2023-03-08T07:27:19.969Z,98449.34
2023-03-08T07:32:30.884Z,98439.88
2023-03-08T07:48:44.029Z,98424.88
2023-03-08T07:54:01.020Z,98411.69
2023-03-08T07:59:02.607Z,98400.00
2023-03-08T08:04:04.206Z,98414.31
2023-03-08T08:09:05.956Z,98403.16
2023-03-08T08:14:08.081Z,98396.00
2023-03-08T08:19:11.038Z,98377.16
2023-03-08T08:24:12.474Z,98370.56
2023-03-08T08:29:13.917Z,98362.59
2023-03-08T08:34:15.402Z,98340.03
2023-03-08T08:39:36.882Z,98334.22
2023-03-08T08:44:46.910Z,98333.53
2023-03-08T08:50:15.840Z,98326.00
2023-03-08T09:00:50.966Z,98322.97
2023-03-08T09:06:06.106Z,98302.78
2023-03-08T09:11:10.540Z,98310.53
2023-03-08T09:16:42.798Z,98303.25
2023-03-08T09:21:44.399Z,98297.59
2023-03-08T09:26:45.829Z,98301.16
2023-03-08T09:31:47.860Z,98283.41
2023-03-08T09:36:49.309Z,98287.34
2023-03-08T09:41:58.417Z,98266.13
2023-03-08T09:47:02.644Z,98257.44
2023-03-08T09:52:13.149Z,98255.06
2023-03-08T09:57:16.660Z,98243.34
2023-03-08T10:02:24.047Z,98240.06
2023-03-08T10:07:45.534Z,98238.03
2023-03-08T10:12:46.939Z,98228.59
2023-03-08T10:17:51.950Z,98216.72
2023-03-08T10:23:01.338Z,98210.81
2023-03-08T10:28:03.963Z,98199.13
2023-03-08T10:33:08.098Z,98194.22
2023-03-08T10:38:15.662Z,98192.28
2023-03-08T10:43:32.316Z,98179.63
2023-03-08T10:48:33.839Z,98187.84
2023-03-08T10:53:35.975Z,98183.91
2023-03-08T10:58:38.665Z,98185.75
2023-03-08T11:03:40.104Z,98178.72
2023-03-08T11:08:51.841Z,98170.66
2023-03-08T11:13:54.041Z,98174.47
2023-03-08T11:18:55.461Z,98175.44
2023-03-08T11:24:02.902Z,98174.47
2023-03-08T11:29:16.232Z,98161.28
2023-03-08T11:34:36.222Z,98152.00
2023-03-08T11:39:42.883Z,98164.38
2023-03-08T11:44:52.697Z,98161.38
2023-03-08T11:50:02.062Z,98149.00
2023-03-08T11:55:22.025Z,98131.75
2023-03-08T12:00:26.273Z,98136.91
2023-03-08T12:05:29.695Z,98133.50
2023-03-08T12:10:45.677Z,98116.81
2023-03-08T12:15:54.222Z,98108.03
2023-03-08T12:21:00.944Z,98102.94
2023-03-08T12:26:15.351Z,98118.56
2023-03-08T12:31:27.526Z,98116.31
2023-03-08T12:36:38.845Z,98110.28
2023-03-08T12:41:40.642Z,98100.44
2023-03-08T12:46:56.330Z,98114.75
2023-03-08T12:52:05.757Z,98108.22
2023-03-08T12:57:15.365Z,98093.75
2023-03-08T13:02:22.941Z,98097.13
2023-03-08T13:07:27.086Z,98088.81
2023-03-08T13:12:42.068Z,98079.16
2023-03-08T13:17:51.329Z,98081.31
2023-03-08T13:23:13.030Z,98074.81
2023-03-08T13:28:16.061Z,98083.34
2023-03-08T13:33:26.067Z,98069.47
2023-03-08T13:38:38.573Z,98070.91
2023-03-08T13:43:39.896Z,98082.09
2023-03-08T13:48:43.174Z,98069.13
2023-03-08T13:53:45.123Z,98063.13
2023-03-08T13:58:47.222Z,98057.25
2023-03-08T14:03:49.155Z,98047.41
2023-03-08T14:08:50.702Z,98043.78
2023-03-08T14:13:55.954Z,98036.22
2023-03-08T14:18:58.433Z,98041.50
2023-03-08T14:24:01.636Z,98024.28
2023-03-08T14:29:09.192Z,98026.09
2023-03-08T14:34:19.205Z,98008.88
2023-03-08T14:39:21.223Z,98006.78
2023-03-08T14:44:28.023Z,98002.84
2023-03-08T14:49:43.381Z,97999.25
2023-03-08T15:01:02.207Z,97975.47
2023-03-08T15:06:16.396Z,97967.09
2023-03-08T15:11:18.181Z,97962.34
2023-03-08T15:16:19.601Z,97960.38
2023-03-08T15:21:23.328Z,97967.59
2023-03-08T15:26:26.600Z,97972.69
2023-03-08T15:31:28.119Z,97967.44
2023-03-08T15:36:29.580Z,97960.22
2023-03-08T15:41:30.964Z,97958.59
2023-03-08T15:46:32.441Z,97944.47
2023-03-08T15:51:36.730Z,97949.75
2023-03-08T15:56:38.107Z,97949.25
2023-03-08T16:01:39.495Z,97970.38
2023-03-08T16:06:41.461Z,97973.50
2023-03-08T16:11:42.803Z,97966.13
2023-03-08T16:16:59.788Z,97971.84
2023-03-08T16:22:01.828Z,97987.75
2023-03-08T16:27:03.248Z,97985.47
2023-03-08T16:32:04.820Z,98003.53
2023-03-08T16:37:06.350Z,97999.56
2023-03-08T16:42:11.572Z,97993.34
2023-03-08T16:47:13.097Z,98006.63
2023-03-08T16:52:15.236Z,97995.31
2023-03-08T16:57:19.307Z,97996.78
2023-03-08T17:02:21.597Z,98005.63
2023-03-08T17:07:26.849Z,98013.38
2023-03-08T17:12:28.256Z,98015.16
2023-03-08T17:17:29.654Z,98000.72
2023-03-08T17:22:30.995Z,97996.78
2023-03-08T17:27:32.399Z,97971.72
2023-03-08T17:32:41.422Z,97962.53
2023-03-08T17:37:42.877Z,97961.72
2023-03-08T17:42:44.410Z,97961.19
2023-03-08T17:47:47.342Z,97971.72
2023-03-08T17:52:48.877Z,97991.53
2023-03-08T17:58:05.450Z,98001.69
2023-03-08T18:03:06.843Z,98006.47
2023-03-08T18:08:08.217Z,98012.53
2023-03-08T18:13:09.787Z,98028.41
2023-03-08T18:18:11.169Z,98033.78
2023-03-08T18:23:12.566Z,98032.28
2023-03-08T18:28:13.959Z,98034.25
2023-03-08T18:33:15.504Z,98041.16
2023-03-08T18:38:16.940Z,98048.22
2023-03-08T18:43:18.337Z,98049.69
2023-03-08T18:48:20.411Z,98043.50
2023-03-08T18:53:25.006Z,98044.09
2023-03-08T18:58:27.073Z,98039.84
2023-03-08T19:03:28.905Z,98037.28
2023-03-08T19:08:30.557Z,98036.69
2023-03-08T19:13:31.954Z,98021.09
2023-03-08T19:18:33.489Z,98007.69
2023-03-08T19:23:34.843Z,98010.63
2023-03-08T19:28:36.323Z,98003.56
2023-03-08T19:33:37.720Z,97981.78
2023-03-08T19:38:39.091Z,97992.78
2023-03-08T19:43:40.569Z,98016.22
2023-03-08T19:48:41.937Z,98023.75
2023-03-08T19:53:43.715Z,98025.31
2023-03-08T19:58:46.089Z,98031.84
2023-03-08T20:03:47.740Z,98038.09
2023-03-08T20:08:49.614Z,98030.38
2023-03-08T20:13:51.503Z,98022.63
2023-03-08T20:18:53.109Z,98016.47
2023-03-08T20:23:55.211Z,98020.97
2023-03-08T20:28:57.083Z,98009.31
2023-03-08T20:33:58.733Z,98000.41
2023-03-08T20:39:00.090Z,97997.88
2023-03-08T20:44:01.445Z,97988.22
2023-03-08T20:49:02.864Z,98001.63
2023-03-08T20:54:04.230Z,98005.06
2023-03-08T20:59:05.640Z,98006.16
2023-03-08T21:04:06.955Z,97996.75
2023-03-08T21:09:08.381Z,97990.56
2023-03-08T21:14:10.068Z,97980.91
2023-03-08T21:19:11.573Z,97972.72
2023-03-08T21:24:14.965Z,97970.59
2023-03-08T21:29:17.667Z,97952.97
2023-03-08T21:34:19.696Z,97938.81
2023-03-08T21:39:21.191Z,97934.31
2023-03-08T21:44:22.931Z,97920.03
2023-03-08T21:49:25.661Z,97912.59
2023-03-08T21:54:28.148Z,97913.94
2023-03-08T21:59:29.564Z,97906.03
2023-03-08T22:04:30.958Z,97896.22
2023-03-08T22:09:32.372Z,97911.38
2023-03-08T22:14:34.080Z,97894.91
2023-03-08T22:19:35.528Z,97897.59
2023-03-08T22:24:37.071Z,97877.28
2023-03-08T22:29:38.588Z,97872.50
2023-03-08T22:34:39.956Z,97860.91
2023-03-08T22:39:41.675Z,97852.69
2023-03-08T22:44:43.045Z,97841.41
2023-03-08T22:49:44.550Z,97833.69
2023-03-08T22:54:46.205Z,97837.09
2023-03-08T22:59:47.649Z,97843.38
2023-03-08T23:04:49.073Z,97839.25
2023-03-08T23:09:50.430Z,97833.38
2023-03-08T23:14:51.770Z,97821.22
2023-03-08T23:19:53.244Z,97825.16
2023-03-08T23:24:54.639Z,97823.19
2023-03-08T23:29:55.999Z,97822.22
2023-03-08T23:34:57.607Z,97818.63
2023-03-08T23:39:59.077Z,97808.97
2023-03-08T23:45:00.489Z,97806.34
2023-03-08T23:50:01.978Z,97812.22
2023-03-08T23:55:04.012Z,97799.75
